Összefoglaló Pér: 

VentuSky:

Felhőkép magyaroszág: 

 

 

Keresés

Felhőkép 

Felhőkép

Széltérkép

Széltérkép

Győr-Pér Repülőtér

Élő webkamera kép

 Nagyobb kép

Győr-Pér Repülőtér

[Source: ADDS]
METAR
LHPR 170115Z AUTO 12004KT 090V160 1900 -SHRA BR NCD 04/04 Q1019 =
AMD LHPR 161900Z 1619/1703 VRB02KT 5000 BR NSC TEMPO 1619/1703 1200 BR BCFG SCT005 PROB40 TEMPO 1619/1703 0600 FG BKN002
TAF
AMD LHPR 161900Z 1619/1703 VRB02KT 5000 BR NSC TEMPO 1619/1703 1200 BR BCFG SCT005 PROB40 TEMPO 1619/1703 0600 FG BKN002 =
SR / SS: 05:10 / 15:57 UTC (Napkelte / Napnyugta 2019-10-17)

Kapcsolat

Telephely:     9099 Pér, Repülõtér

Klubhelyiség: 9021 Gyõr, Városház tér 3.

E-mail: info@aeroclub-gyor.hu

Telefon: 06-20-777-9106

Adószám: 19113832-2-08

  
Joomla űrlapépítő by JoomlaShine
JSN Metro template designed by JoomlaShine.com